sensor_id;sensor_type;location;lat;lon;timestamp;pressure;altitude;pressure_sealevel;temperature;humidity
71666;BME280;59503;53.486;10.196;2023-01-08T00:00:48;100578.44;;;7.17;100.00
71666;BME280;59503;53.486;10.196;2023-01-08T00:03:14;100583.84;;;7.17;100.00
71666;BME280;59503;53.486;10.196;2023-01-08T00:05:40;100579.78;;;7.11;100.00
71666;BME280;59503;53.486;10.196;2023-01-08T00:08:05;100568.06;;;7.19;100.00
71666;BME280;59503;53.486;10.196;2023-01-08T00:10:33;100568.94;;;7.23;100.00
71666;BME280;59503;53.486;10.196;2023-01-08T00:12:59;100570.53;;;7.24;100.00
71666;BME280;59503;53.486;10.196;2023-01-08T00:15:25;100567.03;;;7.23;100.00
71666;BME280;59503;53.486;10.196;2023-01-08T00:17:50;100555.06;;;7.24;100.00
71666;BME280;59503;53.486;10.196;2023-01-08T00:20:15;100551.50;;;7.20;100.00
71666;BME280;59503;53.486;10.196;2023-01-08T00:22:41;100559.72;;;7.24;100.00
71666;BME280;59503;53.486;10.196;2023-01-08T00:25:07;100560.13;;;7.26;100.00
71666;BME280;59503;53.486;10.196;2023-01-08T00:27:32;100566.00;;;7.28;100.00
71666;BME280;59503;53.486;10.196;2023-01-08T00:29:58;100556.31;;;7.27;100.00
71666;BME280;59503;53.486;10.196;2023-01-08T00:32:23;100558.78;;;7.32;100.00
71666;BME280;59503;53.486;10.196;2023-01-08T00:34:48;100554.16;;;7.32;100.00
71666;BME280;59503;53.486;10.196;2023-01-08T00:37:14;100556.06;;;7.32;100.00
71666;BME280;59503;53.486;10.196;2023-01-08T00:39:43;100539.75;;;7.28;100.00
71666;BME280;59503;53.486;10.196;2023-01-08T00:42:09;100532.00;;;7.27;100.00
71666;BME280;59503;53.486;10.196;2023-01-08T00:44:34;100530.41;;;7.26;100.00
71666;BME280;59503;53.486;10.196;2023-01-08T00:47:00;100523.44;;;7.25;100.00
71666;BME280;59503;53.486;10.196;2023-01-08T00:49:25;100522.63;;;7.24;100.00
71666;BME280;59503;53.486;10.196;2023-01-08T00:51:51;100510.16;;;7.20;100.00
71666;BME280;59503;53.486;10.196;2023-01-08T00:54:16;100510.84;;;7.17;100.00
71666;BME280;59503;53.486;10.196;2023-01-08T00:56:41;100503.84;;;7.16;100.00
71666;BME280;59503;53.486;10.196;2023-01-08T00:59:07;100503.75;;;7.12;100.00
71666;BME280;59503;53.486;10.196;2023-01-08T01:01:32;100501.31;;;7.07;100.00
71666;BME280;59503;53.486;10.196;2023-01-08T01:03:58;100508.66;;;7.07;100.00
71666;BME280;59503;53.486;10.196;2023-01-08T01:06:23;100509.75;;;7.06;100.00
71666;BME280;59503;53.486;10.196;2023-01-08T01:08:48;100510.91;;;7.05;100.00
71666;BME280;59503;53.486;10.196;2023-01-08T01:11:21;100513.25;;;7.06;100.00
71666;BME280;59503;53.486;10.196;2023-01-08T01:13:47;100514.81;;;7.07;100.00
71666;BME280;59503;53.486;10.196;2023-01-08T01:16:13;100525.47;;;7.16;100.00
71666;BME280;59503;53.486;10.196;2023-01-08T01:18:38;100517.38;;;7.16;100.00
71666;BME280;59503;53.486;10.196;2023-01-08T01:21:31;100518.63;;;7.18;100.00
71666;BME280;59503;53.486;10.196;2023-01-08T01:23:59;100509.47;;;7.23;100.00
71666;BME280;59503;53.486;10.196;2023-01-08T01:26:26;100519.34;;;7.31;100.00
71666;BME280;59503;53.486;10.196;2023-01-08T01:28:53;100525.38;;;7.40;100.00
71666;BME280;59503;53.486;10.196;2023-01-08T01:31:20;100512.03;;;7.31;100.00
71666;BME280;59503;53.486;10.196;2023-01-08T01:33:47;100525.75;;;7.38;100.00
71666;BME280;59503;53.486;10.196;2023-01-08T01:36:14;100523.38;;;7.37;100.00
71666;BME280;59503;53.486;10.196;2023-01-08T01:38:44;100524.78;;;7.46;100.00
71666;BME280;59503;53.486;10.196;2023-01-08T01:41:17;100513.53;;;7.44;100.00
71666;BME280;59503;53.486;10.196;2023-01-08T01:43:43;100521.75;;;7.48;100.00
71666;BME280;59503;53.486;10.196;2023-01-08T01:48:55;100511.63;;;7.45;100.00
71666;BME280;59503;53.486;10.196;2023-01-08T01:51:28;100509.47;;;7.50;100.00
71666;BME280;59503;53.486;10.196;2023-01-08T01:53:55;100511.91;;;7.55;100.00
71666;BME280;59503;53.486;10.196;2023-01-08T01:56:20;100490.53;;;7.50;100.00
71666;BME280;59503;53.486;10.196;2023-01-08T01:58:46;100500.19;;;7.51;100.00
71666;BME280;59503;53.486;10.196;2023-01-08T02:01:11;100499.41;;;7.51;100.00
71666;BME280;59503;53.486;10.196;2023-01-08T02:03:38;100504.81;;;7.51;100.00
71666;BME280;59503;53.486;10.196;2023-01-08T02:09:16;100496.88;;;7.58;100.00
71666;BME280;59503;53.486;10.196;2023-01-08T02:12:05;100493.94;;;7.63;100.00
71666;BME280;59503;53.486;10.196;2023-01-08T02:15:24;100492.91;;;7.68;100.00
71666;BME280;59503;53.486;10.196;2023-01-08T02:18:07;100490.09;;;7.64;100.00
71666;BME280;59503;53.486;10.196;2023-01-08T02:20:39;100492.81;;;7.64;100.00
71666;BME280;59503;53.486;10.196;2023-01-08T02:31:21;100475.97;;;7.71;100.00
71666;BME280;59503;53.486;10.196;2023-01-08T02:33:47;100478.31;;;7.72;100.00
71666;BME280;59503;53.486;10.196;2023-01-08T02:38:56;100464.81;;;7.72;100.00
71666;BME280;59503;53.486;10.196;2023-01-08T02:44:20;100439.75;;;7.75;100.00
71666;BME280;59503;53.486;10.196;2023-01-08T02:46:48;100438.19;;;7.74;100.00
71666;BME280;59503;53.486;10.196;2023-01-08T02:49:17;100430.34;;;7.69;100.00
71666;BME280;59503;53.486;10.196;2023-01-08T02:51:49;100434.59;;;7.70;100.00
71666;BME280;59503;53.486;10.196;2023-01-08T02:54:24;100443.84;;;7.69;100.00
71666;BME280;59503;53.486;10.196;2023-01-08T02:56:58;100441.81;;;7.66;100.00
71666;BME280;59503;53.486;10.196;2023-01-08T02:59:26;100445.31;;;7.67;100.00
71666;BME280;59503;53.486;10.196;2023-01-08T03:01:53;100451.97;;;7.69;100.00
71666;BME280;59503;53.486;10.196;2023-01-08T03:04:21;100451.88;;;7.66;100.00
71666;BME280;59503;53.486;10.196;2023-01-08T03:06:49;100453.44;;;7.67;100.00
71666;BME280;59503;53.486;10.196;2023-01-08T03:09:16;100465.50;;;7.69;100.00
71666;BME280;59503;53.486;10.196;2023-01-08T03:12:01;100464.34;;;7.70;100.00
71666;BME280;59503;53.486;10.196;2023-01-08T03:15:20;100451.97;;;7.69;100.00
71666;BME280;59503;53.486;10.196;2023-01-08T03:17:32;100455.78;;;7.68;100.00
71666;BME280;59503;53.486;10.196;2023-01-08T03:22:32;100456.25;;;7.70;100.00
71666;BME280;59503;53.486;10.196;2023-01-08T03:25:02;100438.81;;;7.68;100.00
71666;BME280;59503;53.486;10.196;2023-01-08T03:27:31;100445.06;;;7.72;100.00
71666;BME280;59503;53.486;10.196;2023-01-08T03:29:58;100446.56;;;7.69;100.00
71666;BME280;59503;53.486;10.196;2023-01-08T03:32:26;100450.38;;;7.68;100.00
71666;BME280;59503;53.486;10.196;2023-01-08T03:34:54;100441.81;;;7.66;100.00
71666;BME280;59503;53.486;10.196;2023-01-08T03:37:25;100438.00;;;7.67;100.00
71666;BME280;59503;53.486;10.196;2023-01-08T03:39:57;100428.25;;;7.63;100.00
71666;BME280;59503;53.486;10.196;2023-01-08T03:42:26;100427.97;;;7.68;100.00
71666;BME280;59503;53.486;10.196;2023-01-08T03:44:52;100440.00;;;7.70;100.00
71666;BME280;59503;53.486;10.196;2023-01-08T03:47:19;100446.75;;;7.76;100.00
71666;BME280;59503;53.486;10.196;2023-01-08T03:49:48;100433.47;;;7.71;100.00
71666;BME280;59503;53.486;10.196;2023-01-08T03:52:26;100437.47;;;7.77;100.00
71666;BME280;59503;53.486;10.196;2023-01-08T03:54:52;100431.19;;;7.73;100.00
71666;BME280;59503;53.486;10.196;2023-01-08T03:57:18;100429.63;;;7.72;100.00
71666;BME280;59503;53.486;10.196;2023-01-08T03:59:43;100423.44;;;7.72;100.00
71666;BME280;59503;53.486;10.196;2023-01-08T04:02:09;100431.28;;;7.77;100.00
71666;BME280;59503;53.486;10.196;2023-01-08T04:04:34;100438.94;;;7.75;100.00
71666;BME280;59503;53.486;10.196;2023-01-08T04:07:00;100436.34;;;7.78;100.00
71666;BME280;59503;53.486;10.196;2023-01-08T04:09:25;100446.03;;;7.79;100.00
71666;BME280;59503;53.486;10.196;2023-01-08T04:11:51;100449.19;;;7.81;100.00
71666;BME280;59503;53.486;10.196;2023-01-08T04:14:16;100437.56;;;7.81;100.00
71666;BME280;59503;53.486;10.196;2023-01-08T04:16:43;100436.34;;;7.78;100.00
71666;BME280;59503;53.486;10.196;2023-01-08T04:19:10;100434.94;;;7.84;100.00
71666;BME280;59503;53.486;10.196;2023-01-08T04:21:36;100423.25;;;7.80;100.00
71666;BME280;59503;53.486;10.196;2023-01-08T04:24:03;100419.06;;;7.83;100.00
71666;BME280;59503;53.486;10.196;2023-01-08T04:26:28;100428.75;;;7.84;100.00
71666;BME280;59503;53.486;10.196;2023-01-08T04:28:54;100429.19;;;7.86;100.00
71666;BME280;59503;53.486;10.196;2023-01-08T04:31:19;100422.28;;;7.88;100.00
71666;BME280;59503;53.486;10.196;2023-01-08T04:33:44;100419.56;;;7.88;100.00
71666;BME280;59503;53.486;10.196;2023-01-08T04:36:10;100405.19;;;7.84;100.00
71666;BME280;59503;53.486;10.196;2023-01-08T04:38:35;100408.34;;;7.86;100.00
71666;BME280;59503;53.486;10.196;2023-01-08T04:41:01;100405.28;;;7.88;100.00
71666;BME280;59503;53.486;10.196;2023-01-08T04:43:28;100407.19;;;7.87;100.00
71666;BME280;59503;53.486;10.196;2023-01-08T04:45:57;100409.97;;;7.91;100.00
71666;BME280;59503;53.486;10.196;2023-01-08T04:48:23;100405.34;;;7.91;100.00
71666;BME280;59503;53.486;10.196;2023-01-08T04:50:49;100385.97;;;7.89;100.00
71666;BME280;59503;53.486;10.196;2023-01-08T04:53:15;100390.69;;;7.92;100.00
71666;BME280;59503;53.486;10.196;2023-01-08T04:55:40;100386.47;;;7.95;100.00
71666;BME280;59503;53.486;10.196;2023-01-08T04:58:06;100379.06;;;7.92;100.00
71666;BME280;59503;53.486;10.196;2023-01-08T05:00:32;100379.56;;;7.97;100.00
71666;BME280;59503;53.486;10.196;2023-01-08T05:02:57;100382.00;;;8.02;100.00
71666;BME280;59503;53.486;10.196;2023-01-08T05:05:22;100378.88;;;8.00;100.00
71666;BME280;59503;53.486;10.196;2023-01-08T05:07:48;100370.75;;;8.00;100.00
71666;BME280;59503;53.486;10.196;2023-01-08T05:10:13;100367.69;;;8.02;100.00
71666;BME280;59503;53.486;10.196;2023-01-08T05:12:39;100366.41;;;7.96;100.00
71666;BME280;59503;53.486;10.196;2023-01-08T05:15:05;100367.47;;;7.91;100.00
71666;BME280;59503;53.486;10.196;2023-01-08T05:17:30;100364.75;;;7.91;100.00
71666;BME280;59503;53.486;10.196;2023-01-08T05:19:56;100366.69;;;7.91;100.00
71666;BME280;59503;53.486;10.196;2023-01-08T05:22:21;100361.19;;;7.87;100.00
71666;BME280;59503;53.486;10.196;2023-01-08T05:24:47;100355.78;;;7.87;100.00
71666;BME280;59503;53.486;10.196;2023-01-08T05:27:12;100362.34;;;7.86;100.00
71666;BME280;59503;53.486;10.196;2023-01-08T05:29:38;100359.63;;;7.86;100.00
71666;BME280;59503;53.486;10.196;2023-01-08T05:32:03;100363.81;;;7.84;100.00
71666;BME280;59503;53.486;10.196;2023-01-08T05:34:30;100368.41;;;7.83;100.00
71666;BME280;59503;53.486;10.196;2023-01-08T05:36:55;100370.28;;;7.79;100.00
71666;BME280;59503;53.486;10.196;2023-01-08T05:39:21;100365.59;;;7.76;100.00
71666;BME280;59503;53.486;10.196;2023-01-08T05:41:46;100369.31;;;7.72;100.00
71666;BME280;59503;53.486;10.196;2023-01-08T05:44:12;100371.94;;;7.68;100.00
71666;BME280;59503;53.486;10.196;2023-01-08T05:46:37;100365.31;;;7.66;100.00
71666;BME280;59503;53.486;10.196;2023-01-08T05:49:02;100366.34;;;7.61;100.00
71666;BME280;59503;53.486;10.196;2023-01-08T05:51:28;100370.66;;;7.62;100.00
71666;BME280;59503;53.486;10.196;2023-01-08T05:53:53;100368.38;;;7.64;100.00
71666;BME280;59503;53.486;10.196;2023-01-08T05:56:19;100364.00;;;7.59;100.00
71666;BME280;59503;53.486;10.196;2023-01-08T05:58:44;100368.28;;;7.61;100.00
71666;BME280;59503;53.486;10.196;2023-01-08T06:01:12;100367.16;;;7.62;100.00
71666;BME280;59503;53.486;10.196;2023-01-08T06:03:40;100362.44;;;7.58;100.00
71666;BME280;59503;53.486;10.196;2023-01-08T06:06:06;100360.09;;;7.57;100.00
71666;BME280;59503;53.486;10.196;2023-01-08T06:08:32;100351.97;;;7.57;100.00
71666;BME280;59503;53.486;10.196;2023-01-08T06:10:59;100360.44;;;7.55;100.00
71666;BME280;59503;53.486;10.196;2023-01-08T06:13:25;100351.97;;;7.57;100.00
71666;BME280;59503;53.486;10.196;2023-01-08T06:15:50;100350.41;;;7.56;100.00
71666;BME280;59503;53.486;10.196;2023-01-08T06:18:16;100361.22;;;7.56;100.00
71666;BME280;59503;53.486;10.196;2023-01-08T06:20:41;100354.59;;;7.53;100.00
71666;BME280;59503;53.486;10.196;2023-01-08T06:23:07;100352.69;;;7.54;100.00
71666;BME280;59503;53.486;10.196;2023-01-08T06:25:33;100351.09;;;7.53;100.00
71666;BME280;59503;53.486;10.196;2023-01-08T06:27:59;100336.63;;;7.45;100.00
71666;BME280;59503;53.486;10.196;2023-01-08T06:30:24;100350.66;;;7.51;100.00
71666;BME280;59503;53.486;10.196;2023-01-08T06:32:55;100347.53;;;7.49;100.00
71666;BME280;59503;53.486;10.196;2023-01-08T06:35:20;100349.03;;;7.46;100.00
71666;BME280;59503;53.486;10.196;2023-01-08T06:37:45;100347.09;;;7.47;100.00
71666;BME280;59503;53.486;10.196;2023-01-08T06:40:12;100352.06;;;7.45;100.00
71666;BME280;59503;53.486;10.196;2023-01-08T06:42:37;100352.06;;;7.45;100.00
71666;BME280;59503;53.486;10.196;2023-01-08T06:45:03;100347.47;;;7.45;100.00
71666;BME280;59503;53.486;10.196;2023-01-08T06:47:29;100343.53;;;7.43;100.00
71666;BME280;59503;53.486;10.196;2023-01-08T06:49:54;100345.78;;;7.41;100.00
71666;BME280;59503;53.486;10.196;2023-01-08T06:52:19;100352.44;;;7.43;100.00
71666;BME280;59503;53.486;10.196;2023-01-08T06:54:45;100345.03;;;7.40;100.00
71666;BME280;59503;53.486;10.196;2023-01-08T06:57:10;100337.66;;;7.41;100.00
71666;BME280;59503;53.486;10.196;2023-01-08T06:59:36;100342.41;;;7.44;100.00
71666;BME280;59503;53.486;10.196;2023-01-08T07:02:01;100340.81;;;7.43;100.00
71666;BME280;59503;53.486;10.196;2023-01-08T07:04:26;100339.25;;;7.42;100.00
71666;BME280;59503;53.486;10.196;2023-01-08T07:06:52;100336.91;;;7.40;100.00
71666;BME280;59503;53.486;10.196;2023-01-08T07:09:17;100332.25;;;7.41;100.00
71666;BME280;59503;53.486;10.196;2023-01-08T07:11:43;100332.72;;;7.43;100.00
71666;BME280;59503;53.486;10.196;2023-01-08T07:14:08;100328.78;;;7.40;100.00
71666;BME280;59503;53.486;10.196;2023-01-08T07:16:34;100333.41;;;7.40;100.00
71666;BME280;59503;53.486;10.196;2023-01-08T07:18:59;100339.16;;;7.38;100.00
71666;BME280;59503;53.486;10.196;2023-01-08T07:21:26;100336.81;;;7.37;100.00
71666;BME280;59503;53.486;10.196;2023-01-08T07:23:51;100327.38;;;7.31;100.00
71666;BME280;59503;53.486;10.196;2023-01-08T07:26:16;100326.28;;;7.32;100.00
71666;BME280;59503;53.486;10.196;2023-01-08T07:28:42;100336.66;;;7.30;100.00
71666;BME280;59503;53.486;10.196;2023-01-08T07:31:07;100319.63;;;7.29;100.00
71666;BME280;59503;53.486;10.196;2023-01-08T07:33:34;100327.13;;;7.36;100.00
71666;BME280;59503;53.486;10.196;2023-01-08T07:36:00;100326.00;;;7.37;100.00
71666;BME280;59503;53.486;10.196;2023-01-08T07:38:25;100326.81;;;7.37;100.00
71666;BME280;59503;53.486;10.196;2023-01-08T07:40:51;100324.84;;;7.38;100.00
71666;BME280;59503;53.486;10.196;2023-01-08T07:43:17;100315.97;;;7.37;100.00
71666;BME280;59503;53.486;10.196;2023-01-08T07:45:42;100318.34;;;7.39;100.00
71666;BME280;59503;53.486;10.196;2023-01-08T07:48:08;100319.88;;;7.40;100.00
71666;BME280;59503;53.486;10.196;2023-01-08T07:50:41;100320.25;;;7.38;100.00
71666;BME280;59503;53.486;10.196;2023-01-08T07:53:07;100314.47;;;7.40;100.00
71666;BME280;59503;53.486;10.196;2023-01-08T07:55:33;100316.84;;;7.41;100.00
71666;BME280;59503;53.486;10.196;2023-01-08T07:57:58;100313.88;;;7.46;100.00
71666;BME280;59503;53.486;10.196;2023-01-08T08:00:24;100320.06;;;7.47;100.00
71666;BME280;59503;53.486;10.196;2023-01-08T08:02:49;100317.09;;;7.52;100.00
71666;BME280;59503;53.486;10.196;2023-01-08T08:05:15;100313.69;;;7.55;100.00
71666;BME280;59503;53.486;10.196;2023-01-08T08:07:42;100316.03;;;7.56;100.00
71666;BME280;59503;53.486;10.196;2023-01-08T08:10:07;100316.13;;;7.60;100.00
71666;BME280;59503;53.486;10.196;2023-01-08T08:12:33;100317.00;;;7.64;100.00
71666;BME280;59503;53.486;10.196;2023-01-08T08:14:58;100316.28;;;7.67;100.00
71666;BME280;59503;53.486;10.196;2023-01-08T08:17:24;100321.84;;;7.74;100.00
71666;BME280;59503;53.486;10.196;2023-01-08T08:19:51;100311.75;;;7.71;100.00
71666;BME280;59503;53.486;10.196;2023-01-08T08:22:16;100329.88;;;7.71;100.00
71666;BME280;59503;53.486;10.196;2023-01-08T08:24:41;100320.53;;;7.68;100.00
71666;BME280;59503;53.486;10.196;2023-01-08T08:27:07;100321.97;;;7.62;100.00
71666;BME280;59503;53.486;10.196;2023-01-08T08:29:33;100316.81;;;7.57;100.00
71666;BME280;59503;53.486;10.196;2023-01-08T08:31:58;100312.63;;;7.59;100.00
71666;BME280;59503;53.486;10.196;2023-01-08T08:34:23;100315.66;;;7.58;100.00
71666;BME280;59503;53.486;10.196;2023-01-08T08:36:49;100313.31;;;7.56;100.00
71666;BME280;59503;53.486;10.196;2023-01-08T08:39:15;100313.25;;;7.53;100.00
71666;BME280;59503;53.486;10.196;2023-01-08T08:41:40;100317.09;;;7.52;100.00
71666;BME280;59503;53.486;10.196;2023-01-08T08:44:08;100315.50;;;7.51;100.00
71666;BME280;59503;53.486;10.196;2023-01-08T08:46:34;100311.25;;;7.50;100.00
71666;BME280;59503;53.486;10.196;2023-01-08T08:49:00;100306.63;;;7.50;100.00
71666;BME280;59503;53.486;10.196;2023-01-08T08:51:25;100304.69;;;7.51;100.00
71666;BME280;59503;53.486;10.196;2023-01-08T08:53:51;100300.88;;;7.52;100.00
71666;BME280;59503;53.486;10.196;2023-01-08T08:56:16;100301.56;;;7.49;100.00
71666;BME280;59503;53.486;10.196;2023-01-08T08:58:42;100303.75;;;7.59;100.00
71666;BME280;59503;53.486;10.196;2023-01-08T09:01:09;100300.41;;;7.66;100.00
71666;BME280;59503;53.486;10.196;2023-01-08T09:03:36;100296.38;;;7.59;100.00
71666;BME280;59503;53.486;10.196;2023-01-08T09:06:02;100296.19;;;7.68;100.00
71666;BME280;59503;53.486;10.196;2023-01-08T09:08:27;100298.97;;;7.72;100.00
71666;BME280;59503;53.486;10.196;2023-01-08T09:10:53;100295.91;;;7.73;100.00
71666;BME280;59503;53.486;10.196;2023-01-08T09:13:18;100308.31;;;7.74;100.00
71666;BME280;59503;53.486;10.196;2023-01-08T09:15:44;100303.75;;;7.78;100.00
71666;BME280;59503;53.486;10.196;2023-01-08T09:18:09;100306.19;;;7.83;100.00
71666;BME280;59503;53.486;10.196;2023-01-08T09:20:35;100306.19;;;7.83;100.00
71666;BME280;59503;53.486;10.196;2023-01-08T09:23:01;100309.50;;;7.92;100.00
71666;BME280;59503;53.486;10.196;2023-01-08T09:25:29;100305.91;;;7.88;100.00
71666;BME280;59503;53.486;10.196;2023-01-08T09:28:02;100314.19;;;7.95;100.00
71666;BME280;59503;53.486;10.196;2023-01-08T09:30:28;100310.69;;;7.95;100.00
71666;BME280;59503;53.486;10.196;2023-01-08T09:32:58;100294.81;;;7.93;100.00
71666;BME280;59503;53.486;10.196;2023-01-08T09:35:24;100301.97;;;8.01;100.00
71666;BME280;59503;53.486;10.196;2023-01-08T09:37:54;100302.28;;;8.00;100.00
71666;BME280;59503;53.486;10.196;2023-01-08T09:40:21;100298.53;;;8.04;100.00
71666;BME280;59503;53.486;10.196;2023-01-08T09:42:57;100294.31;;;8.07;100.00
71666;BME280;59503;53.486;10.196;2023-01-08T09:45:29;100301.41;;;8.11;100.00
71666;BME280;59503;53.486;10.196;2023-01-08T09:47:56;100304.22;;;8.18;100.00
71666;BME280;59503;53.486;10.196;2023-01-08T09:50:25;100298.41;;;8.16;100.00
71666;BME280;59503;53.486;10.196;2023-01-08T09:52:51;100306.25;;;8.21;100.00
71666;BME280;59503;53.486;10.196;2023-01-08T09:55:17;100289.56;;;8.19;100.00
71666;BME280;59503;53.486;10.196;2023-01-08T09:57:43;100292.72;;;8.21;100.00
71666;BME280;59503;53.486;10.196;2023-01-08T10:00:13;100288.06;;;8.22;100.00
71666;BME280;59503;53.486;10.196;2023-01-08T10:02:39;100295.53;;;8.25;100.00
71666;BME280;59503;53.486;10.196;2023-01-08T10:05:12;100296.28;;;8.25;100.00
71666;BME280;59503;53.486;10.196;2023-01-08T10:07:38;100301.34;;;8.27;100.00
71666;BME280;59503;53.486;10.196;2023-01-08T10:10:04;100301.63;;;8.41;100.00
71666;BME280;59503;53.486;10.196;2023-01-08T10:12:31;100300.56;;;8.45;100.00
71666;BME280;59503;53.486;10.196;2023-01-08T10:15:03;100305.59;;;8.47;100.00
71666;BME280;59503;53.486;10.196;2023-01-08T10:17:40;100296.38;;;8.70;100.00
71666;BME280;59503;53.486;10.196;2023-01-08T10:20:15;100287.25;;;8.78;100.00
71666;BME280;59503;53.486;10.196;2023-01-08T10:22:41;100296.31;;;8.67;100.00
71666;BME280;59503;53.486;10.196;2023-01-08T10:25:22;100296.13;;;8.56;100.00
71666;BME280;59503;53.486;10.196;2023-01-08T10:27:55;100287.00;;;8.45;100.00
71666;BME280;59503;53.486;10.196;2023-01-08T10:30:27;100287.00;;;8.45;100.00
71666;BME280;59503;53.486;10.196;2023-01-08T10:33:06;100285.66;;;8.36;100.00
71666;BME280;59503;53.486;10.196;2023-01-08T10:35:38;100271.19;;;8.28;100.00
71666;BME280;59503;53.486;10.196;2023-01-08T10:38:05;100271.47;;;8.23;100.00
71666;BME280;59503;53.486;10.196;2023-01-08T10:40:37;100273.91;;;8.28;100.00
71666;BME280;59503;53.486;10.196;2023-01-08T10:43:24;100268.84;;;8.27;100.00
71666;BME280;59503;53.486;10.196;2023-01-08T10:46:04;100271.91;;;8.25;100.00
71666;BME280;59503;53.486;10.196;2023-01-08T10:48:46;100265.78;;;8.28;100.00
71666;BME280;59503;53.486;10.196;2023-01-08T10:51:17;100260.44;;;8.32;100.00
71666;BME280;59503;53.486;10.196;2023-01-08T10:53:43;100268.09;;;8.26;100.00
71666;BME280;59503;53.486;10.196;2023-01-08T10:56:25;100262.84;;;8.18;100.00
71666;BME280;59503;53.486;10.196;2023-01-08T10:58:52;100271.41;;;8.39;100.00
71666;BME280;59503;53.486;10.196;2023-01-08T11:01:23;100264.66;;;8.29;100.00
71666;BME280;59503;53.486;10.196;2023-01-08T11:04:03;100261.59;;;8.31;100.00
71666;BME280;59503;53.486;10.196;2023-01-08T11:06:31;100247.19;;;8.27;100.00
71666;BME280;59503;53.486;10.196;2023-01-08T11:09:01;100238.84;;;8.35;100.00
71666;BME280;59503;53.486;10.196;2023-01-08T11:11:32;100250.97;;;8.41;100.00
71666;BME280;59503;53.486;10.196;2023-01-08T11:14:04;100253.38;;;8.46;100.00
71666;BME280;59503;53.486;10.196;2023-01-08T11:16:35;100248.06;;;8.53;100.00
71666;BME280;59503;53.486;10.196;2023-01-08T11:19:01;100254.34;;;8.57;100.00
71666;BME280;59503;53.486;10.196;2023-01-08T11:21:30;100251.28;;;8.59;100.00
71666;BME280;59503;53.486;10.196;2023-01-08T11:24:09;100249.84;;;8.65;100.00
71666;BME280;59503;53.486;10.196;2023-01-08T11:26:39;100249.78;;;8.61;100.00
71666;BME280;59503;53.486;10.196;2023-01-08T11:29:12;100244.72;;;8.60;100.00
71666;BME280;59503;53.486;10.196;2023-01-08T11:31:43;100242.03;;;8.60;100.00
71666;BME280;59503;53.486;10.196;2023-01-08T11:34:25;100248.63;;;8.62;100.00
71666;BME280;59503;53.486;10.196;2023-01-08T11:36:58;100237.91;;;8.69;100.00
71666;BME280;59503;53.486;10.196;2023-01-08T11:39:25;100234.19;;;8.77;100.00
71666;BME280;59503;53.486;10.196;2023-01-08T11:42:19;100232.31;;;8.82;100.00
71666;BME280;59503;53.486;10.196;2023-01-08T11:45:09;100227.34;;;8.84;100.00
71666;BME280;59503;53.486;10.196;2023-01-08T11:53:46;100200.25;;;9.10;100.00
71666;BME280;59503;53.486;10.196;2023-01-08T12:04:36;100185.34;;;8.97;100.00
71666;BME280;59503;53.486;10.196;2023-01-08T12:07:23;100172.88;;;9.18;100.00
71666;BME280;59503;53.486;10.196;2023-01-08T12:10:00;100183.88;;;9.29;100.00
71666;BME280;59503;53.486;10.196;2023-01-08T12:15:38;100179.75;;;9.38;100.00
71666;BME280;59503;53.486;10.196;2023-01-08T12:18:24;100172.97;;;9.55;100.00
71666;BME280;59503;53.486;10.196;2023-01-08T12:21:18;100180.41;;;9.61;100.00
71666;BME280;59503;53.486;10.196;2023-01-08T12:24:10;100180.88;;;9.67;100.00
71666;BME280;59503;53.486;10.196;2023-01-08T12:27:05;100181.63;;;9.64;100.00
71666;BME280;59503;53.486;10.196;2023-01-08T12:29:52;100187.50;;;9.69;100.00
71666;BME280;59503;53.486;10.196;2023-01-08T12:32:29;100178.63;;;9.72;100.00
71666;BME280;59503;53.486;10.196;2023-01-08T12:40:05;100157.50;;;9.88;100.00
71666;BME280;59503;53.486;10.196;2023-01-08T12:42:40;100163.06;;;9.69;100.00
71666;BME280;59503;53.486;10.196;2023-01-08T12:45:15;100160.47;;;9.47;100.00
71666;BME280;59503;53.486;10.196;2023-01-08T12:47:42;100159.59;;;9.39;100.00
71666;BME280;59503;53.486;10.196;2023-01-08T12:53:20;100143.31;;;10.05;100.00
71666;BME280;59503;53.486;10.196;2023-01-08T12:56:04;100141.00;;;10.44;100.00
71666;BME280;59503;53.486;10.196;2023-01-08T13:03:57;100135.00;;;10.21;99.01
71666;BME280;59503;53.486;10.196;2023-01-08T13:06:23;100133.25;;;10.06;99.63
71666;BME280;59503;53.486;10.196;2023-01-08T13:08:51;100138.41;;;10.15;98.62
71666;BME280;59503;53.486;10.196;2023-01-08T13:11:33;100126.94;;;10.35;97.56
71666;BME280;59503;53.486;10.196;2023-01-08T13:14:08;100131.94;;;10.26;97.43
71666;BME280;59503;53.486;10.196;2023-01-08T13:16:44;100119.91;;;10.27;98.05
71666;BME280;59503;53.486;10.196;2023-01-08T13:19:33;100113.16;;;10.54;94.91
71666;BME280;59503;53.486;10.196;2023-01-08T13:22:00;100113.47;;;10.46;93.60
71666;BME280;59503;53.486;10.196;2023-01-08T13:29:47;100105.38;;;10.09;95.87
71666;BME280;59503;53.486;10.196;2023-01-08T13:32:23;100106.69;;;9.89;97.63
71666;BME280;59503;53.486;10.196;2023-01-08T13:38:04;100096.19;;;9.84;97.43
71666;BME280;59503;53.486;10.196;2023-01-08T13:43:11;100088.78;;;9.81;96.78
71666;BME280;59503;53.486;10.196;2023-01-08T13:46:16;100096.09;;;9.77;96.29
71666;BME280;59503;53.486;10.196;2023-01-08T13:51:29;100091.00;;;9.72;96.55
71666;BME280;59503;53.486;10.196;2023-01-08T13:54:04;100059.91;;;9.62;95.24
71666;BME280;59503;53.486;10.196;2023-01-08T13:56:33;100064.13;;;9.60;95.54